»·PEaware :: N47CB KONP-KACV

N47CB :: KONP-KACV

FLIGHT INFORMATION

Flight Status: Arrived
Operator: Privately registered:
United States
More flights under this callsign
Pilot: Bradley M. (21115)
Aircraft: SOCATA TBM-900
(TBM9)
More flights by this aircraft type
Origin: KONP Newport Mun
United States
Destination: KACV Arcata
United States
More flights between these airports :: More routes between these airports
Route: +ONP V27 CULDU
File this flight plan on PilotEdge
Remarks:
Altitude:
(Current/Filed)
20,000ft
Speed:
(Current/Filed)
226kts
Departed: 08-Jan-19 03:24 PM
Arrived: 08-Jan-19 04:32 PM
Distance/Time
Traveled:
217nm/1:08
Distance/Time
To Go:
Arrived

Flight Plot

Page will automatically refresh every two minutes.

Flight plan parsing failed; only flown route is shown


Map Options




Map Legend


Flown Route
Filed Route
Departure Airport
Arrival Airport
Navaid (VOR, NDB)
Fix

Horizontal Profiles

Position Reports

Time Latitude Longitude Heading Altitude Ground
Speed
08-Jan-19 14:45 44.578260 -124.061406 214 122ft 0kts
08-Jan-19 14:46 44.578260 -124.061406 214 122ft 0kts
08-Jan-19 14:47 44.578260 -124.061406 214 122ft 0kts
08-Jan-19 14:48 44.578260 -124.061406 214 122ft 0kts
08-Jan-19 14:49 44.578260 -124.061406 214 122ft 0kts
08-Jan-19 14:50 44.578260 -124.061406 214 122ft 0kts
08-Jan-19 14:51 44.578260 -124.061406 214 122ft 0kts
08-Jan-19 14:52 44.578260 -124.061406 214 122ft 0kts
08-Jan-19 14:53 44.578260 -124.061406 214 122ft 0kts
08-Jan-19 14:54 44.578260 -124.061406 214 122ft 0kts
08-Jan-19 14:55 44.578260 -124.061406 214 122ft 0kts
08-Jan-19 14:56 44.578260 -124.061406 214 122ft 0kts
08-Jan-19 14:57 44.578260 -124.061406 214 122ft 0kts
08-Jan-19 14:58 44.578260 -124.061406 214 122ft 0kts
08-Jan-19 14:59 44.578260 -124.061406 214 122ft 0kts
08-Jan-19 15:00 44.578260 -124.061406 214 122ft 0kts
08-Jan-19 15:01 44.578260 -124.061406 214 122ft 0kts
08-Jan-19 15:02 44.578260 -124.061406 214 122ft 0kts
08-Jan-19 15:04 44.578260 -124.061406 214 122ft 0kts
08-Jan-19 15:05 44.578260 -124.061406 214 122ft 0kts
08-Jan-19 15:06 44.578260 -124.061407 214 122ft 0kts
08-Jan-19 15:07 44.578260 -124.061407 214 122ft 0kts
08-Jan-19 15:08 44.578260 -124.061407 214 122ft 0kts
08-Jan-19 15:09 44.578260 -124.061407 214 122ft 0kts
08-Jan-19 15:10 44.578260 -124.061407 214 122ft 0kts
08-Jan-19 15:11 44.577751 -124.061162 132 123ft 5kts
08-Jan-19 15:12 44.575156 -124.063376 165 114ft 7kts
08-Jan-19 15:13 44.573630 -124.061183 135 121ft 9kts
08-Jan-19 15:14 44.572523 -124.059544 132 126ft 0kts
08-Jan-19 15:15 44.572523 -124.059544 132 126ft 0kts
08-Jan-19 15:16 44.572523 -124.059544 132 126ft 0kts
08-Jan-19 15:17 44.572523 -124.059544 132 126ft 0kts
08-Jan-19 15:18 44.572523 -124.059544 132 126ft 0kts
08-Jan-19 15:19 44.572523 -124.059544 132 126ft 0kts
08-Jan-19 15:19 44.572523 -124.059544 132 126ft 0kts
08-Jan-19 15:21 44.572523 -124.059544 132 126ft 0kts
08-Jan-19 15:22 44.572523 -124.059544 132 126ft 0kts
08-Jan-19 15:23 44.572523 -124.059544 132 126ft 0kts
08-Jan-19 15:24 44.577530 -124.058638 2 139ft 98kts
08-Jan-19 15:24 44.589059 -124.079922 175 1456ft 133kts
08-Jan-19 15:25 44.550848 -124.084696 184 3477ft 141kts
08-Jan-19 15:26 44.517077 -124.113695 168 5569ft 128kts
08-Jan-19 15:27 44.485286 -124.105162 165 7662ft 113kts
08-Jan-19 15:29 44.451146 -124.100517 174 10132ft 101kts
08-Jan-19 15:29 44.427420 -124.098158 181 11719ft 98kts
08-Jan-19 15:30 44.397840 -124.095777 183 13826ft 103kts
08-Jan-19 15:31 44.366873 -124.093299 183 15861ft 108kts
08-Jan-19 15:32 44.334339 -124.090673 182 17671ft 113kts
08-Jan-19 15:33 44.299056 -124.087891 182 18867ft 141kts
08-Jan-19 15:34 44.249187 -124.091487 186 18854ft 189kts
08-Jan-19 15:35 44.190864 -124.096863 186 18834ft 205kts
08-Jan-19 15:36 44.131057 -124.102443 186 18829ft 209kts
08-Jan-19 15:37 44.074742 -124.107700 186 18826ft 210kts
08-Jan-19 15:38 44.017744 -124.113017 186 18824ft 211kts
08-Jan-19 15:39 43.960543 -124.118334 186 18817ft 210kts
08-Jan-19 15:40 43.903216 -124.123660 186 18807ft 210kts
08-Jan-19 15:41 43.846994 -124.128862 186 18815ft 211kts
08-Jan-19 15:42 43.788145 -124.134314 186 18812ft 213kts
08-Jan-19 15:43 43.730564 -124.139622 186 18805ft 203kts
08-Jan-19 15:44 43.675183 -124.144731 186 18828ft 213kts
08-Jan-19 15:45 43.618770 -124.149918 186 18946ft 221kts
08-Jan-19 15:46 43.556585 -124.155629 185 18051ft 242kts
08-Jan-19 15:47 43.485496 -124.162126 185 17125ft 246kts
08-Jan-19 15:48 43.415685 -124.168471 185 16203ft 245kts
08-Jan-19 15:49 43.347283 -124.171610 184 15231ft 231kts
08-Jan-19 15:50 43.280626 -124.174634 184 14261ft 228kts
08-Jan-19 15:51 43.214801 -124.177604 184 13380ft 224kts
08-Jan-19 15:52 43.151405 -124.180459 184 12528ft 223kts
08-Jan-19 15:53 43.088964 -124.183283 183 11679ft 223kts
08-Jan-19 15:54 43.022746 -124.186266 183 10780ft 226kts
08-Jan-19 15:55 42.957581 -124.189179 182 9906ft 229kts
08-Jan-19 15:56 42.889946 -124.192185 181 9030ft 228kts
08-Jan-19 15:57 42.825377 -124.195041 180 9006ft 211kts
08-Jan-19 15:58 42.762432 -124.197860 178 9017ft 208kts
08-Jan-19 15:59 42.699720 -124.200639 178 9020ft 206kts
08-Jan-19 16:00 42.636645 -124.203377 180 9020ft 206kts
08-Jan-19 16:01 42.574395 -124.206108 178 9020ft 206kts
08-Jan-19 16:02 42.511178 -124.208969 178 9022ft 207kts
08-Jan-19 16:03 42.447582 -124.211827 177 9018ft 207kts
08-Jan-19 16:04 42.385357 -124.214458 178 9020ft 207kts
08-Jan-19 16:05 42.324346 -124.217215 178 9019ft 206kts
08-Jan-19 16:06 42.262031 -124.219797 179 9014ft 206kts
08-Jan-19 16:07 42.200708 -124.222487 178 9012ft 205kts
08-Jan-19 16:08 42.138930 -124.225329 177 9013ft 206kts
08-Jan-19 16:09 42.077824 -124.227999 177 9013ft 207kts
08-Jan-19 16:10 42.016817 -124.230540 179 9012ft 206kts
08-Jan-19 16:11 41.955768 -124.233138 180 9011ft 204kts
08-Jan-19 16:12 41.894553 -124.235950 179 9012ft 204kts
08-Jan-19 16:13 41.833612 -124.238484 179 9016ft 204kts
08-Jan-19 16:14 41.771629 -124.240733 178 9011ft 204kts
08-Jan-19 16:15 41.710773 -124.240437 178 8991ft 204kts
08-Jan-19 16:16 41.650380 -124.240087 178 8991ft 203kts
08-Jan-19 16:17 41.590022 -124.239811 178 8992ft 203kts
08-Jan-19 16:18 41.529981 -124.239132 178 8989ft 203kts
08-Jan-19 16:19 41.469671 -124.238876 178 8991ft 203kts
08-Jan-19 16:20 41.409119 -124.238670 178 8992ft 203kts
08-Jan-19 16:21 41.345001 -124.238385 177 7597ft 234kts
08-Jan-19 16:22 41.275357 -124.237951 175 5664ft 235kts
08-Jan-19 16:23 41.208965 -124.237510 175 3853ft 205kts
08-Jan-19 16:24 41.154830 -124.228806 150 2980ft 152kts
08-Jan-19 16:25 41.114846 -124.201397 151 3009ft 143kts
08-Jan-19 16:26 41.075105 -124.174274 150 2237ft 149kts
08-Jan-19 16:27 41.043362 -124.152696 148 1534ft 103kts
08-Jan-19 16:28 41.019203 -124.136232 146 972ft 76kts
08-Jan-19 16:29 40.998820 -124.122342 147 593ft 86kts
08-Jan-19 16:30 40.977990 -124.108096 154 229ft 47kts
08-Jan-19 16:31 40.970459 -124.103914 244 225ft 15kts
08-Jan-19 16:32 40.972157 -124.106752 341 225ft 0kts
08-Jan-19 16:33 40.972157 -124.106752 341 225ft 0kts
08-Jan-19 16:34 40.972156 -124.106752 341 225ft 0kts
08-Jan-19 16:35 40.972156 -124.106752 341 225ft 0kts

Navigation Log

Ident Type
Flight plan parsing failed, navigation log unavailable